createdAt,value
2023-03-24T00:01:20.108Z,3.60
2023-03-24T00:03:51.990Z,3.33
2023-03-24T00:06:22.644Z,4.75
2023-03-24T00:08:50.780Z,5.40
2023-03-24T00:11:21.054Z,3.65
2023-03-24T00:13:50.415Z,5.22
2023-03-24T00:16:21.542Z,3.95
2023-03-24T00:18:52.974Z,6.13
2023-03-24T00:21:24.407Z,2.78
2023-03-24T00:23:54.310Z,2.75
2023-03-24T00:26:24.863Z,5.10
2023-03-24T00:28:52.998Z,6.10
2023-03-24T00:31:21.744Z,2.08
2023-03-24T00:33:51.455Z,2.88
2023-03-24T00:36:23.231Z,3.38
2023-03-24T00:38:51.705Z,3.88
2023-03-24T00:41:21.272Z,2.55
2023-03-24T00:43:51.149Z,2.20
2023-03-24T00:46:28.526Z,5.03
2023-03-24T00:49:02.035Z,1.80
2023-03-24T00:51:33.739Z,5.53
2023-03-24T00:54:02.096Z,4.28
2023-03-24T00:56:32.691Z,1.95
2023-03-24T00:59:02.538Z,4.95
2023-03-24T01:01:35.201Z,2.72
2023-03-24T01:04:07.916Z,3.28
2023-03-24T01:06:37.908Z,5.82
2023-03-24T01:09:07.748Z,4.05
2023-03-24T01:11:40.402Z,3.92
2023-03-24T01:14:09.778Z,5.07
2023-03-24T01:16:37.824Z,5.60
2023-03-24T01:19:09.380Z,4.28
2023-03-24T01:21:38.329Z,4.90
2023-03-24T01:24:07.604Z,6.35
2023-03-24T01:26:35.729Z,4.35
2023-03-24T01:29:03.695Z,4.95
2023-03-24T01:31:31.600Z,4.63
2023-03-24T01:33:59.572Z,4.38
2023-03-24T01:36:29.445Z,9.43
2023-03-24T01:38:58.505Z,6.03
2023-03-24T01:41:28.700Z,4.55
2023-03-24T01:43:56.540Z,3.97
2023-03-24T01:46:26.373Z,5.50
2023-03-24T01:49:00.686Z,4.80
2023-03-24T01:51:36.146Z,6.32
2023-03-24T01:54:10.588Z,3.47
2023-03-24T01:56:41.950Z,3.10
2023-03-24T01:59:22.827Z,3.38
2023-03-24T02:01:52.150Z,1.45
2023-03-24T02:04:20.054Z,3.92
2023-03-24T02:06:49.293Z,2.33
2023-03-24T02:09:17.156Z,1.52
2023-03-24T02:11:46.156Z,2.08
2023-03-24T02:14:14.805Z,2.88
2023-03-24T02:17:04.734Z,2.05
2023-03-24T02:20:16.414Z,2.47
2023-03-24T02:23:41.826Z,1.45
2023-03-24T02:26:48.587Z,3.10
2023-03-24T02:30:10.045Z,1.55
2023-03-24T02:33:24.182Z,2.70
2023-03-24T02:36:36.726Z,2.00
2023-03-24T02:39:35.667Z,3.75
2023-03-24T02:42:18.813Z,2.50
2023-03-24T02:45:05.371Z,1.48
2023-03-24T02:47:47.201Z,1.67
2023-03-24T02:50:27.946Z,5.50
2023-03-24T02:53:10.805Z,3.80
2023-03-24T02:55:47.669Z,4.72
2023-03-24T02:58:22.950Z,3.03
2023-03-24T03:00:59.662Z,5.25
2023-03-24T03:03:34.475Z,2.40
2023-03-24T03:06:12.113Z,3.88
2023-03-24T03:08:42.495Z,3.92
2023-03-24T03:11:17.799Z,3.42
2023-03-24T03:13:53.403Z,4.22
2023-03-24T03:16:34.667Z,2.83
2023-03-24T03:19:11.906Z,2.22
2023-03-24T03:21:43.932Z,3.47
2023-03-24T03:24:19.902Z,2.95
2023-03-24T03:26:51.025Z,2.22
2023-03-24T03:29:24.057Z,3.90
2023-03-24T03:31:59.734Z,5.43
2023-03-24T03:34:38.061Z,2.17
2023-03-24T03:37:17.283Z,3.60
2023-03-24T03:39:53.272Z,2.92
2023-03-24T03:42:23.582Z,3.13
2023-03-24T03:44:51.966Z,2.58
2023-03-24T03:47:21.248Z,2.65
2023-03-24T03:49:49.134Z,3.65
2023-03-24T03:52:18.634Z,2.00
2023-03-24T03:54:47.241Z,2.67
2023-03-24T03:57:15.923Z,1.25
2023-03-24T03:59:45.154Z,2.20
2023-03-24T04:02:42.102Z,5.70
2023-03-24T04:05:29.069Z,3.00
2023-03-24T04:08:25.050Z,2.70
2023-03-24T04:11:33.010Z,1.25
2023-03-24T04:14:20.406Z,4.38
2023-03-24T04:17:07.348Z,5.90
2023-03-24T04:19:56.796Z,4.22
2023-03-24T04:22:38.184Z,3.78
2023-03-24T04:25:16.916Z,5.45
2023-03-24T04:28:00.826Z,2.58
2023-03-24T04:30:42.854Z,2.33
2023-03-24T04:33:22.182Z,2.80
2023-03-24T04:36:01.558Z,4.47
2023-03-24T04:38:33.181Z,3.70
2023-03-24T04:41:03.356Z,2.10
2023-03-24T04:43:37.315Z,4.43
2023-03-24T04:46:09.392Z,3.70
2023-03-24T04:48:38.892Z,7.65
2023-03-24T04:51:10.372Z,4.40
2023-03-24T04:53:38.077Z,5.30
2023-03-24T04:56:30.015Z,3.88
2023-03-24T04:58:58.671Z,2.50
2023-03-24T05:01:30.038Z,4.22
2023-03-24T05:04:00.990Z,3.53
2023-03-24T05:06:28.731Z,2.90
2023-03-24T05:08:58.728Z,3.88
2023-03-24T05:11:27.544Z,1.60
2023-03-24T05:13:55.763Z,6.53
2023-03-24T05:16:23.538Z,2.63
2023-03-24T05:18:51.311Z,6.25
2023-03-24T05:21:21.391Z,3.75
2023-03-24T05:23:49.403Z,3.38
2023-03-24T05:26:17.550Z,3.85
2023-03-24T05:28:45.480Z,7.15
2023-03-24T05:31:13.313Z,6.15
2023-03-24T05:33:41.491Z,5.22
2023-03-24T05:36:10.830Z,5.20
2023-03-24T05:38:40.557Z,4.43
2023-03-24T05:41:09.268Z,5.03
2023-03-24T05:43:37.184Z,3.47
2023-03-24T05:46:04.900Z,4.18
2023-03-24T05:48:32.634Z,5.32
2023-03-24T05:51:00.325Z,3.92
2023-03-24T05:53:28.006Z,2.25
2023-03-24T05:55:58.589Z,4.22
2023-03-24T05:58:26.562Z,4.85
2023-03-24T06:00:57.013Z,4.75
2023-03-24T06:03:24.873Z,2.40
2023-03-24T06:05:52.870Z,4.25
2023-03-24T06:08:20.586Z,2.85
2023-03-24T06:10:48.388Z,3.42
2023-03-24T06:13:17.449Z,2.80
2023-03-24T06:15:47.793Z,4.82
2023-03-24T06:18:15.778Z,4.82
2023-03-24T06:20:45.681Z,4.15
2023-03-24T06:23:13.401Z,2.85
2023-03-24T06:25:44.324Z,5.75
2023-03-24T06:28:14.025Z,2.47
2023-03-24T06:30:44.872Z,3.03
2023-03-24T06:33:12.862Z,4.13
2023-03-24T06:35:41.092Z,4.82
2023-03-24T06:38:09.836Z,2.30
2023-03-24T06:40:37.566Z,2.97
2023-03-24T06:43:05.579Z,3.35
2023-03-24T06:45:34.747Z,6.80
2023-03-24T06:48:03.896Z,3.20
2023-03-24T06:50:33.200Z,4.40
2023-03-24T06:53:01.112Z,4.53
2023-03-24T06:55:29.417Z,4.35
2023-03-24T06:57:57.342Z,4.22
2023-03-24T07:00:25.728Z,2.58
2023-03-24T07:02:53.550Z,4.63
2023-03-24T07:05:23.858Z,4.30
2023-03-24T07:10:22.532Z,4.82
2023-03-24T07:12:50.346Z,4.30
2023-03-24T07:15:18.214Z,2.53
2023-03-24T07:17:46.136Z,5.22
2023-03-24T07:20:14.148Z,3.58
2023-03-24T07:22:43.388Z,6.35
2023-03-24T07:25:14.136Z,3.63
2023-03-24T07:27:42.938Z,1.50
2023-03-24T07:30:11.455Z,6.50
2023-03-24T07:32:40.590Z,3.15
2023-03-24T07:35:11.009Z,5.32
2023-03-24T07:37:39.363Z,4.53
2023-03-24T07:40:11.841Z,5.28
2023-03-24T07:42:39.686Z,4.18
2023-03-24T07:45:10.663Z,6.57
2023-03-24T07:47:39.668Z,2.70
2023-03-24T07:50:10.736Z,3.15
2023-03-24T07:52:38.534Z,2.28
2023-03-24T07:55:10.891Z,3.55
2023-03-24T07:57:39.581Z,3.03
2023-03-24T08:00:14.953Z,4.20
2023-03-24T08:02:43.386Z,1.42
2023-03-24T08:05:14.041Z,1.75
2023-03-24T08:07:43.356Z,2.13
2023-03-24T08:10:16.240Z,5.28
2023-03-24T08:12:43.982Z,2.38
2023-03-24T08:15:12.918Z,4.95
2023-03-24T08:17:41.170Z,2.58
2023-03-24T08:20:14.329Z,3.78
2023-03-24T08:22:44.661Z,6.40
2023-03-24T08:25:14.598Z,1.95
2023-03-24T08:27:44.647Z,1.48
2023-03-24T08:30:17.170Z,5.38
2023-03-24T08:32:46.360Z,2.80
2023-03-24T08:35:16.657Z,2.70
2023-03-24T08:37:45.299Z,2.30
2023-03-24T08:40:19.359Z,2.97
2023-03-24T08:42:50.338Z,2.03
2023-03-24T08:45:21.868Z,0.82
2023-03-24T08:47:51.844Z,3.63
2023-03-24T08:50:21.825Z,2.35
2023-03-24T08:52:50.036Z,2.13
2023-03-24T08:55:21.737Z,2.00
2023-03-24T08:57:50.540Z,1.13
2023-03-24T09:00:20.737Z,3.33
2023-03-24T09:02:51.894Z,2.08
2023-03-24T09:05:29.403Z,2.05
2023-03-24T09:08:05.128Z,3.92
2023-03-24T09:10:34.364Z,3.85
2023-03-24T09:13:02.053Z,1.92
2023-03-24T09:15:29.883Z,2.80
2023-03-24T09:17:57.699Z,2.00
2023-03-24T09:20:25.749Z,4.28
2023-03-24T09:22:53.641Z,3.17
2023-03-24T09:25:23.206Z,2.65
2023-03-24T09:27:52.498Z,1.15
2023-03-24T09:30:21.008Z,2.33
2023-03-24T09:32:48.751Z,5.53
2023-03-24T09:35:16.852Z,2.53
2023-03-24T09:37:45.379Z,4.20
2023-03-24T09:40:22.679Z,4.00
2023-03-24T09:42:59.085Z,3.90
2023-03-24T09:45:31.642Z,4.90
2023-03-24T09:48:05.676Z,2.53
2023-03-24T09:50:39.527Z,5.38
2023-03-24T09:53:21.215Z,7.65
2023-03-24T09:55:50.653Z,6.20
2023-03-24T09:58:21.310Z,3.55
2023-03-24T10:00:49.236Z,2.47
2023-03-24T10:03:22.703Z,2.55
2023-03-24T10:05:57.115Z,4.95
2023-03-24T10:08:33.070Z,4.18
2023-03-24T10:11:05.878Z,2.30
2023-03-24T10:13:55.088Z,4.43
2023-03-24T10:16:33.602Z,3.50
2023-03-24T10:19:18.174Z,2.00
2023-03-24T10:21:58.936Z,2.35
2023-03-24T10:24:38.398Z,1.98
2023-03-24T10:27:21.520Z,10.55
2023-03-24T10:29:57.090Z,6.18
2023-03-24T10:32:30.581Z,6.35
2023-03-24T10:35:09.237Z,5.00
2023-03-24T10:37:38.446Z,4.15
2023-03-24T10:40:17.896Z,3.50
2023-03-24T10:42:49.624Z,2.55
2023-03-24T10:45:40.814Z,4.20
2023-03-24T10:48:09.230Z,4.85
2023-03-24T10:50:45.853Z,4.30
2023-03-24T10:53:20.283Z,2.88
2023-03-24T10:55:50.560Z,4.13
2023-03-24T10:58:30.635Z,3.90
2023-03-24T11:01:01.259Z,4.70
2023-03-24T11:03:32.845Z,2.25
2023-03-24T11:06:05.145Z,1.67
2023-03-24T11:08:37.603Z,3.97
2023-03-24T11:11:29.304Z,4.63
2023-03-24T11:14:01.303Z,2.55
2023-03-24T11:16:37.240Z,4.07
2023-03-24T11:19:07.654Z,2.60
2023-03-24T11:21:39.525Z,2.33
2023-03-24T11:24:13.379Z,2.03
2023-03-24T11:26:46.263Z,2.92
2023-03-24T11:29:19.577Z,2.03
2023-03-24T11:31:57.166Z,4.10
2023-03-24T11:34:34.429Z,3.05
2023-03-24T11:37:08.136Z,4.55
2023-03-24T11:39:36.705Z,6.07
2023-03-24T11:42:18.290Z,8.10
2023-03-24T11:44:52.147Z,6.57
2023-03-24T11:47:30.567Z,4.50
2023-03-24T11:50:18.766Z,5.70
2023-03-24T11:52:54.060Z,7.63
2023-03-24T11:55:35.250Z,4.72
2023-03-24T11:58:14.957Z,3.97
2023-03-24T12:00:53.179Z,5.72
2023-03-24T12:04:06.306Z,3.92
2023-03-24T12:06:50.125Z,3.55
2023-03-24T12:09:32.754Z,9.23
2023-03-24T12:12:26.542Z,2.40
2023-03-24T12:15:28.179Z,6.70
2023-03-24T12:18:19.223Z,6.93
2023-03-24T12:21:01.205Z,8.45
2023-03-24T12:23:42.593Z,8.23
2023-03-24T12:26:21.949Z,6.57
2023-03-24T12:28:59.457Z,6.20
2023-03-24T12:31:59.400Z,7.13
2023-03-24T12:35:19.531Z,6.93
2023-03-24T12:38:07.564Z,8.05
2023-03-24T12:41:06.368Z,5.97
2023-03-24T12:43:48.925Z,6.68
2023-03-24T12:46:47.778Z,5.15
2023-03-24T12:49:40.002Z,5.35
2023-03-24T12:52:29.685Z,6.82
2023-03-24T12:55:09.276Z,8.90
2023-03-24T12:57:45.120Z,5.38
2023-03-24T13:00:21.728Z,7.75
2023-03-24T13:02:55.757Z,3.92
2023-03-24T13:05:32.220Z,4.53
2023-03-24T13:08:08.629Z,7.38
2023-03-24T13:10:40.334Z,3.00
2023-03-24T13:13:17.615Z,3.50
2023-03-24T13:15:52.027Z,5.97
2023-03-24T13:18:32.223Z,2.33
2023-03-24T13:21:05.920Z,2.40
2023-03-24T13:23:48.477Z,2.17
2023-03-24T13:26:28.712Z,1.45
2023-03-24T13:29:21.716Z,3.95
2023-03-24T13:31:58.805Z,4.38
2023-03-24T13:34:33.819Z,2.22
2023-03-24T13:37:06.756Z,2.45
2023-03-24T13:39:37.259Z,1.05
2023-03-24T13:42:07.341Z,1.02
2023-03-24T13:44:41.520Z,2.03
2023-03-24T13:47:16.408Z,2.28
2023-03-24T13:49:56.464Z,4.88
2023-03-24T13:52:35.206Z,2.63
2023-03-24T13:55:11.627Z,3.55
2023-03-24T13:57:53.038Z,2.85
2023-03-24T14:00:23.930Z,4.28
2023-03-24T14:02:53.926Z,7.60
2023-03-24T14:05:42.068Z,3.90
2023-03-24T14:08:18.890Z,2.00
2023-03-24T14:10:49.639Z,1.48
2023-03-24T14:13:38.683Z,2.72
2023-03-24T14:16:42.708Z,2.38
2023-03-24T14:19:24.170Z,1.65
2023-03-24T14:22:10.393Z,2.75
2023-03-24T14:24:40.218Z,2.90
2023-03-24T14:27:37.362Z,2.58
2023-03-24T14:30:21.910Z,3.92
2023-03-24T14:32:53.457Z,0.52
2023-03-24T14:35:33.753Z,2.60
2023-03-24T14:38:05.350Z,1.08
2023-03-24T14:40:38.533Z,3.35
2023-03-24T14:43:22.868Z,1.55
2023-03-24T14:46:02.578Z,1.73
2023-03-24T14:48:37.890Z,1.38
2023-03-24T14:51:25.702Z,3.60
2023-03-24T14:53:58.876Z,2.13
2023-03-24T14:56:35.581Z,5.22
2023-03-24T14:59:12.192Z,4.13
2023-03-24T15:01:49.387Z,1.38
2023-03-24T15:04:17.211Z,2.55
2023-03-24T15:06:46.895Z,2.75
2023-03-24T15:09:18.577Z,2.72
2023-03-24T15:11:49.703Z,1.95
2023-03-24T15:14:24.854Z,1.98
2023-03-24T15:16:58.666Z,2.60
2023-03-24T15:19:30.679Z,1.40
2023-03-24T15:22:02.532Z,1.25
2023-03-24T15:24:35.014Z,0.50
2023-03-24T15:27:31.540Z,0.70
2023-03-24T15:30:01.148Z,0.40
2023-03-24T15:32:32.968Z,0.65
2023-03-24T15:35:06.031Z,1.70
2023-03-24T15:37:40.080Z,0.77
2023-03-24T15:40:35.210Z,0.60
2023-03-24T15:43:06.496Z,3.10
2023-03-24T15:45:44.134Z,1.30
2023-03-24T15:48:19.474Z,1.98
2023-03-24T15:50:59.400Z,0.40
2023-03-24T15:53:30.481Z,1.15
2023-03-24T15:56:17.386Z,0.68
2023-03-24T15:58:53.112Z,1.17
2023-03-24T16:01:36.460Z,1.05
2023-03-24T16:04:11.857Z,1.27
2023-03-24T16:06:53.852Z,0.38
2023-03-24T16:09:27.354Z,0.40
2023-03-24T16:11:55.283Z,1.42
2023-03-24T16:14:27.718Z,0.30
2023-03-24T16:16:57.192Z,1.80
2023-03-24T16:19:27.157Z,0.95
2023-03-24T16:21:55.373Z,2.05
2023-03-24T16:24:23.260Z,0.40
2023-03-24T16:26:51.831Z,0.35
2023-03-24T16:29:23.089Z,0.63
2023-03-24T16:31:53.832Z,0.30
2023-03-24T16:34:23.520Z,0.47
2023-03-24T16:36:55.025Z,1.67
2023-03-24T16:39:26.155Z,1.20
2023-03-24T16:41:55.030Z,0.75
2023-03-24T16:44:23.798Z,0.60
2023-03-24T16:46:54.942Z,1.10
2023-03-24T16:49:24.564Z,0.55
2023-03-24T16:51:54.315Z,0.25
2023-03-24T16:54:22.169Z,1.23
2023-03-24T16:56:50.150Z,3.67
2023-03-24T16:59:17.864Z,4.07
2023-03-24T17:01:47.214Z,1.77
2023-03-24T17:04:17.670Z,5.38
2023-03-24T17:06:49.226Z,2.78
2023-03-24T17:09:18.648Z,0.65
2023-03-24T17:11:52.175Z,0.52
2023-03-24T17:14:20.555Z,0.90
2023-03-24T17:16:51.200Z,3.42
2023-03-24T17:19:22.770Z,1.30
2023-03-24T17:21:58.826Z,0.93
2023-03-24T17:24:28.737Z,3.15
2023-03-24T17:26:56.502Z,4.47
2023-03-24T17:29:24.228Z,0.85
2023-03-24T17:31:51.964Z,0.50
2023-03-24T17:34:22.165Z,0.77
2023-03-24T17:36:51.354Z,1.02
2023-03-24T17:39:21.810Z,1.08
2023-03-24T17:41:50.941Z,0.93
2023-03-24T17:44:18.793Z,0.70
2023-03-24T17:46:46.577Z,0.50
2023-03-24T17:49:14.303Z,2.03
2023-03-24T17:51:42.081Z,3.17
2023-03-24T17:54:11.591Z,1.33
2023-03-24T17:56:39.820Z,1.15
2023-03-24T17:59:09.348Z,0.80
2023-03-24T18:01:39.045Z,2.88
2023-03-24T18:04:07.659Z,0.65
2023-03-24T18:06:35.784Z,0.43
2023-03-24T18:09:03.899Z,0.38
2023-03-24T18:11:31.775Z,0.28
2023-03-24T18:13:59.444Z,0.70
2023-03-24T18:16:30.632Z,0.45
2023-03-24T18:19:00.477Z,0.50
2023-03-24T18:21:28.488Z,0.50
2023-03-24T18:23:56.225Z,0.35
2023-03-24T18:26:24.697Z,0.28
2023-03-24T18:28:52.911Z,0.45
2023-03-24T18:31:23.210Z,0.30
2023-03-24T18:33:54.377Z,0.25
2023-03-24T18:36:26.424Z,0.20
2023-03-24T18:38:58.153Z,2.47
2023-03-24T18:41:28.131Z,0.20
2023-03-24T18:43:57.419Z,0.20
2023-03-24T18:46:26.371Z,0.10
2023-03-24T18:48:56.317Z,0.10
2023-03-24T18:51:26.252Z,0.20
2023-03-24T18:53:54.498Z,0.20
2023-03-24T18:56:23.882Z,0.45
2023-03-24T18:58:52.305Z,0.17
2023-03-24T19:01:23.466Z,1.38
2023-03-24T19:03:53.110Z,0.10
2023-03-24T19:06:26.006Z,0.52
2023-03-24T19:08:54.574Z,1.77
2023-03-24T19:11:22.596Z,0.20
2023-03-24T19:13:51.784Z,0.17
2023-03-24T19:16:21.022Z,0.20
2023-03-24T19:18:50.407Z,0.10
2023-03-24T19:21:18.317Z,0.75
2023-03-24T19:23:47.760Z,0.32
2023-03-24T19:26:16.899Z,2.45
2023-03-24T19:28:45.804Z,0.10
2023-03-24T19:31:17.161Z,0.45
2023-03-24T19:33:46.709Z,0.13
2023-03-24T19:36:16.111Z,0.85
2023-03-24T19:38:44.050Z,1.08
2023-03-24T19:41:16.083Z,0.17
2023-03-24T19:43:44.023Z,0.10
2023-03-24T19:46:12.101Z,0.20
2023-03-24T19:48:39.838Z,0.10
2023-03-24T19:51:07.619Z,0.40
2023-03-24T19:53:35.425Z,0.20
2023-03-24T19:56:04.034Z,1.75
2023-03-24T19:58:33.235Z,0.20
2023-03-24T20:01:01.759Z,0.28
2023-03-24T20:03:29.904Z,0.28
2023-03-24T20:05:57.670Z,0.30
2023-03-24T20:08:25.975Z,0.30
2023-03-24T20:10:53.713Z,0.43
2023-03-24T20:13:23.636Z,0.35
2023-03-24T20:15:52.894Z,0.25
2023-03-24T20:18:21.042Z,1.40
2023-03-24T20:20:48.748Z,0.35
2023-03-24T20:23:16.849Z,0.20
2023-03-24T20:25:45.075Z,2.33
2023-03-24T20:28:12.870Z,0.10
2023-03-24T20:30:42.650Z,0.65
2023-03-24T20:33:11.796Z,0.30
2023-03-24T20:35:40.563Z,0.35
2023-03-24T20:38:08.475Z,1.63
2023-03-24T20:40:36.231Z,0.35
2023-03-24T20:43:03.968Z,0.20
2023-03-24T20:45:31.735Z,0.20
2023-03-24T20:47:59.616Z,0.35
2023-03-24T20:50:28.682Z,0.57
2023-03-24T20:52:56.395Z,0.68
2023-03-24T20:55:24.130Z,2.60
2023-03-24T20:57:51.790Z,3.60
2023-03-24T21:00:20.173Z,1.00
2023-03-24T21:02:48.218Z,0.60
2023-03-24T21:05:16.010Z,0.73
2023-03-24T21:07:45.449Z,1.58
2023-03-24T21:10:14.803Z,0.63
2023-03-24T21:12:52.864Z,0.57
2023-03-24T21:15:22.125Z,0.90
2023-03-24T21:17:50.137Z,0.10
2023-03-24T21:20:18.763Z,0.50
2023-03-24T21:22:54.740Z,0.28
2023-03-24T21:25:24.957Z,0.20
2023-03-24T21:27:52.721Z,0.98
2023-03-24T21:30:21.402Z,1.88
2023-03-24T21:32:51.603Z,1.88
2023-03-24T21:35:20.623Z,2.72
2023-03-24T21:37:50.238Z,0.17
2023-03-24T21:40:21.402Z,0.30
2023-03-24T21:42:50.731Z,0.35
2023-03-24T21:45:20.883Z,0.15
2023-03-24T21:47:50.196Z,13.40
2023-03-24T21:50:22.745Z,1.45
2023-03-24T21:52:54.533Z,3.15
2023-03-24T21:55:26.734Z,0.32
2023-03-24T21:57:55.280Z,1.73
2023-03-24T22:00:29.861Z,1.55
2023-03-24T22:02:58.114Z,1.75
2023-03-24T22:05:27.538Z,2.00
2023-03-24T22:07:56.915Z,0.30
2023-03-24T22:10:29.764Z,0.32
2023-03-24T22:12:57.961Z,0.35
2023-03-24T22:15:25.688Z,1.35
2023-03-24T22:17:53.549Z,1.40
2023-03-24T22:20:22.231Z,1.75
2023-03-24T22:22:50.510Z,5.20
2023-03-24T22:25:20.619Z,6.03
2023-03-24T22:27:50.753Z,0.45
2023-03-24T22:30:20.460Z,1.50
2023-03-24T22:32:48.264Z,0.45
2023-03-24T22:35:16.453Z,0.35
2023-03-24T22:37:44.130Z,0.70
2023-03-24T22:40:11.846Z,0.47
2023-03-24T22:42:40.918Z,0.50
2023-03-24T22:45:10.177Z,0.57
2023-03-24T22:47:38.066Z,0.88
2023-03-24T22:50:09.355Z,0.68
2023-03-24T22:52:37.085Z,0.85
2023-03-24T22:55:05.524Z,0.47
2023-03-24T22:57:33.234Z,1.90
2023-03-24T23:00:02.447Z,4.22
2023-03-24T23:02:30.618Z,1.00
2023-03-24T23:04:59.122Z,0.75
2023-03-24T23:07:27.985Z,0.30
2023-03-24T23:09:59.414Z,0.30
2023-03-24T23:12:27.923Z,0.57
2023-03-24T23:14:55.831Z,0.20
2023-03-24T23:17:25.470Z,0.35
2023-03-24T23:19:54.270Z,0.93
2023-03-24T23:22:22.561Z,0.25
2023-03-24T23:24:53.574Z,0.47
2023-03-24T23:27:28.652Z,0.93
2023-03-24T23:29:56.664Z,0.68
2023-03-24T23:32:25.774Z,0.28
2023-03-24T23:34:53.773Z,0.20
2023-03-24T23:37:21.462Z,0.20
2023-03-24T23:39:50.222Z,0.40
2023-03-24T23:42:18.313Z,0.25
2023-03-24T23:44:46.091Z,0.43
2023-03-24T23:47:13.761Z,0.30
2023-03-24T23:49:43.613Z,0.35
2023-03-24T23:52:11.420Z,0.10
2023-03-24T23:54:39.103Z,0.43
2023-03-24T23:57:06.797Z,0.28
2023-03-24T23:59:34.800Z,0.47
